createdAt,value
2017-12-27T00:02:41.163Z,86.87
2017-12-27T00:05:14.340Z,86.81
2017-12-27T00:07:47.479Z,86.81
2017-12-27T00:10:20.570Z,87.26
2017-12-27T00:12:53.746Z,87.41
2017-12-27T00:15:27.039Z,87.29
2017-12-27T00:18:00.110Z,87.30
2017-12-27T00:23:38.358Z,87.96
2017-12-27T00:26:11.542Z,87.92
2017-12-27T00:28:44.622Z,87.82
2017-12-27T00:31:22.166Z,87.54
2017-12-27T00:33:49.762Z,87.76
2017-12-27T00:36:17.423Z,87.17
2017-12-27T00:38:45.025Z,86.39
2017-12-27T00:41:12.628Z,86.22
2017-12-27T00:43:40.243Z,86.02
2017-12-27T00:46:07.902Z,85.73
2017-12-27T00:48:35.554Z,85.62
2017-12-27T00:51:03.159Z,85.79
2017-12-27T00:53:30.758Z,85.89
2017-12-27T00:55:58.434Z,86.16
2017-12-27T00:58:26.094Z,86.36
2017-12-27T01:00:53.802Z,86.64
2017-12-27T01:03:21.402Z,87.04
2017-12-27T01:05:48.998Z,87.58
2017-12-27T01:08:16.663Z,87.90
2017-12-27T01:10:44.265Z,88.23
2017-12-27T01:13:11.980Z,88.64
2017-12-27T01:15:39.590Z,88.59
2017-12-27T01:18:07.250Z,88.31
2017-12-27T01:20:34.862Z,88.35
2017-12-27T01:23:02.462Z,88.83
2017-12-27T01:25:30.118Z,89.30
2017-12-27T01:27:57.758Z,89.11
2017-12-27T01:30:25.358Z,88.73
2017-12-27T01:32:52.965Z,88.71
2017-12-27T01:35:20.569Z,88.45
2017-12-27T01:37:48.322Z,88.07
2017-12-27T01:40:15.921Z,87.88
2017-12-27T01:42:43.591Z,87.57
2017-12-27T01:45:11.251Z,87.48
2017-12-27T01:47:38.847Z,87.61
2017-12-27T01:50:06.531Z,87.54
2017-12-27T01:52:34.134Z,88.05
2017-12-27T01:55:01.852Z,88.70
2017-12-27T01:57:29.526Z,88.89
2017-12-27T01:59:57.182Z,88.86
2017-12-27T02:02:24.889Z,89.10
2017-12-27T02:04:52.490Z,89.11
2017-12-27T02:07:20.087Z,89.19
2017-12-27T02:09:47.758Z,88.51
2017-12-27T02:12:15.470Z,88.33
2017-12-27T02:14:43.138Z,89.04
2017-12-27T02:17:10.795Z,88.72
2017-12-27T02:19:38.460Z,88.44
2017-12-27T02:22:06.062Z,87.90
2017-12-27T02:24:33.763Z,88.25
2017-12-27T02:27:01.430Z,87.92
2017-12-27T02:29:29.050Z,86.73
2017-12-27T02:31:56.911Z,86.19
2017-12-27T02:34:24.522Z,85.83
2017-12-27T02:36:52.129Z,85.30
2017-12-27T02:42:26.273Z,84.95
2017-12-27T02:44:53.923Z,85.58
2017-12-27T02:47:21.527Z,85.49
2017-12-27T02:49:49.169Z,85.24
2017-12-27T02:52:16.839Z,85.06
2017-12-27T02:54:44.439Z,85.22
2017-12-27T02:57:12.092Z,85.51
2017-12-27T02:59:39.698Z,86.28
2017-12-27T03:02:07.300Z,85.72
2017-12-27T03:04:34.966Z,85.24
2017-12-27T03:07:02.627Z,85.13
2017-12-27T03:09:30.287Z,85.34
2017-12-27T03:11:57.890Z,85.75
2017-12-27T03:14:25.542Z,86.02
2017-12-27T03:16:53.175Z,86.55
2017-12-27T03:19:20.782Z,87.09
2017-12-27T03:21:48.461Z,87.47
2017-12-27T03:24:16.059Z,87.74
2017-12-27T03:26:43.782Z,87.86
2017-12-27T03:29:11.463Z,88.01
2017-12-27T03:31:39.123Z,88.10
2017-12-27T03:34:06.779Z,88.36
2017-12-27T03:36:34.391Z,88.76
2017-12-27T03:39:02.067Z,89.12
2017-12-27T03:41:29.677Z,89.54
2017-12-27T03:43:57.282Z,89.54
2017-12-27T03:46:24.946Z,89.57
2017-12-27T03:48:52.608Z,89.74
2017-12-27T03:51:20.206Z,89.58
2017-12-27T03:53:47.814Z,89.40
2017-12-27T03:56:15.479Z,89.60
2017-12-27T03:58:43.182Z,89.81
2017-12-27T04:01:10.796Z,89.58
2017-12-27T04:03:38.463Z,88.80
2017-12-27T04:06:06.062Z,88.28
2017-12-27T04:08:33.667Z,88.07
2017-12-27T04:11:01.337Z,87.71
2017-12-27T04:13:28.939Z,87.50
2017-12-27T04:15:56.605Z,87.29
2017-12-27T04:18:24.276Z,87.30
2017-12-27T04:20:51.878Z,87.41
2017-12-27T04:23:19.598Z,87.78
2017-12-27T04:25:47.202Z,87.97
2017-12-27T04:28:14.869Z,88.47
2017-12-27T04:30:42.478Z,88.51
2017-12-27T04:33:10.087Z,88.86
2017-12-27T04:35:37.742Z,88.71
2017-12-27T04:38:05.352Z,88.80
2017-12-27T04:40:32.958Z,88.78
2017-12-27T04:43:00.630Z,88.60
2017-12-27T04:45:28.231Z,88.42
2017-12-27T04:47:55.899Z,88.39
2017-12-27T04:50:23.502Z,88.40
2017-12-27T04:52:51.102Z,88.36
2017-12-27T04:55:18.710Z,88.44
2017-12-27T04:57:46.313Z,88.77
2017-12-27T05:00:14.878Z,88.99
2017-12-27T05:02:42.547Z,89.11
2017-12-27T05:05:10.145Z,88.84
2017-12-27T05:07:37.759Z,88.69
2017-12-27T05:10:05.416Z,89.10
2017-12-27T05:12:33.166Z,89.56
2017-12-27T05:15:01.215Z,89.74
2017-12-27T05:17:28.890Z,89.55
2017-12-27T05:19:56.523Z,89.67
2017-12-27T05:22:24.123Z,89.80
2017-12-27T05:24:51.841Z,89.85
2017-12-27T05:27:19.444Z,89.74
2017-12-27T05:29:47.093Z,89.58
2017-12-27T05:32:14.767Z,89.25
2017-12-27T05:34:42.379Z,89.39
2017-12-27T05:37:10.067Z,89.15
2017-12-27T05:39:37.724Z,89.10
2017-12-27T05:42:05.332Z,89.42
2017-12-27T05:44:33.008Z,89.46
2017-12-27T05:47:00.670Z,89.24
2017-12-27T05:49:28.330Z,88.96
2017-12-27T05:51:55.937Z,88.96
2017-12-27T05:54:23.538Z,89.21
2017-12-27T05:56:51.202Z,89.10
2017-12-27T05:59:18.796Z,87.59
2017-12-27T06:01:46.455Z,87.45
2017-12-27T06:04:14.119Z,87.68
2017-12-27T06:06:41.815Z,87.87
2017-12-27T06:09:09.445Z,87.84
2017-12-27T06:11:37.107Z,87.89
2017-12-27T06:14:04.767Z,88.36
2017-12-27T06:16:32.368Z,88.52
2017-12-27T06:18:59.970Z,88.38
2017-12-27T06:21:27.694Z,88.41
2017-12-27T06:23:55.364Z,88.26
2017-12-27T06:26:23.069Z,88.03
2017-12-27T06:28:50.678Z,87.78
2017-12-27T06:31:18.407Z,87.66
2017-12-27T06:33:46.079Z,87.20
2017-12-27T06:36:13.745Z,86.64
2017-12-27T06:38:41.459Z,86.45
2017-12-27T06:41:09.066Z,85.86
2017-12-27T06:43:36.679Z,85.89
2017-12-27T06:46:04.362Z,85.72
2017-12-27T06:48:31.969Z,84.92
2017-12-27T06:50:59.626Z,84.19
2017-12-27T06:53:27.234Z,84.10
2017-12-27T06:55:54.832Z,83.54
2017-12-27T06:58:22.453Z,82.27
2017-12-27T07:00:50.054Z,82.47
2017-12-27T07:03:17.769Z,82.60
2017-12-27T07:05:45.372Z,82.13
2017-12-27T07:08:13.031Z,81.71
2017-12-27T07:10:40.634Z,81.78
2017-12-27T07:13:08.234Z,81.76
2017-12-27T07:15:35.976Z,81.34
2017-12-27T07:18:03.636Z,81.65
2017-12-27T07:20:31.301Z,80.55
2017-12-27T07:22:58.989Z,80.98
2017-12-27T07:25:26.594Z,80.59
2017-12-27T07:27:54.312Z,79.94
2017-12-27T07:30:21.914Z,79.72
2017-12-27T07:32:49.510Z,79.34
2017-12-27T07:35:17.119Z,78.86
2017-12-27T07:37:44.778Z,78.41
2017-12-27T07:40:12.466Z,78.35
2017-12-27T07:42:40.126Z,76.91
2017-12-27T07:45:07.792Z,76.86
2017-12-27T07:47:35.406Z,77.10
2017-12-27T07:50:03.069Z,77.32
2017-12-27T07:52:30.838Z,76.67
2017-12-27T07:54:58.557Z,76.62
2017-12-27T07:57:26.223Z,76.40
2017-12-27T07:59:53.838Z,75.75
2017-12-27T08:02:21.502Z,75.84
2017-12-27T08:04:49.227Z,75.26
2017-12-27T08:07:16.830Z,74.86
2017-12-27T08:09:44.434Z,74.33
2017-12-27T08:12:12.046Z,74.46
2017-12-27T08:14:39.646Z,74.59
2017-12-27T08:17:07.379Z,73.36
2017-12-27T08:19:34.992Z,73.61
2017-12-27T08:22:02.656Z,73.35
2017-12-27T08:24:30.340Z,73.27
2017-12-27T08:26:57.941Z,73.39
2017-12-27T08:29:25.650Z,72.62
2017-12-27T08:31:53.299Z,72.63
2017-12-27T08:34:20.885Z,72.28
2017-12-27T08:36:48.495Z,71.97
2017-12-27T08:39:16.091Z,70.27
2017-12-27T08:41:43.745Z,69.46
2017-12-27T08:44:11.363Z,68.95
2017-12-27T08:46:38.959Z,68.63
2017-12-27T08:49:06.566Z,67.38
2017-12-27T08:51:34.166Z,67.29
2017-12-27T08:54:01.814Z,67.04
2017-12-27T08:56:29.420Z,66.05
2017-12-27T08:58:57.030Z,65.36
2017-12-27T09:01:24.990Z,64.32
2017-12-27T09:03:52.607Z,63.58
2017-12-27T09:06:20.257Z,63.06
2017-12-27T09:08:47.864Z,62.93
2017-12-27T09:11:15.462Z,63.32
2017-12-27T09:13:43.066Z,62.73
2017-12-27T09:16:10.674Z,62.22
2017-12-27T09:18:38.391Z,61.76
2017-12-27T09:21:06.042Z,61.28
2017-12-27T09:23:33.638Z,60.83
2017-12-27T09:26:01.306Z,60.22
2017-12-27T09:28:28.978Z,59.00
2017-12-27T09:30:56.698Z,57.56
2017-12-27T09:33:24.319Z,56.72
2017-12-27T09:35:51.982Z,56.24
2017-12-27T09:38:19.608Z,56.32
2017-12-27T09:40:47.282Z,56.47
2017-12-27T09:43:14.939Z,56.46
2017-12-27T09:45:42.602Z,56.32
2017-12-27T09:48:10.198Z,54.54
2017-12-27T09:50:39.026Z,53.01
2017-12-27T09:53:06.683Z,51.82
2017-12-27T09:55:34.347Z,50.08
2017-12-27T09:58:01.942Z,49.69
2017-12-27T10:00:29.546Z,49.07
2017-12-27T10:02:58.163Z,48.76
2017-12-27T10:05:25.820Z,48.70
2017-12-27T10:07:53.543Z,49.58
2017-12-27T10:10:21.134Z,50.15
2017-12-27T10:12:48.722Z,50.56
2017-12-27T10:15:16.331Z,50.46
2017-12-27T10:17:43.938Z,51.22
2017-12-27T10:20:11.618Z,51.21
2017-12-27T10:22:39.210Z,52.04
2017-12-27T10:25:07.802Z,52.18
2017-12-27T10:27:36.586Z,52.34
2017-12-27T10:30:04.250Z,51.80
2017-12-27T10:32:32.027Z,49.86
2017-12-27T10:34:59.751Z,48.80
2017-12-27T10:37:27.467Z,48.32
2017-12-27T10:39:55.123Z,48.45
2017-12-27T10:42:23.486Z,49.49
2017-12-27T10:44:51.986Z,49.41
2017-12-27T10:47:19.601Z,49.89
2017-12-27T10:49:47.290Z,49.43
2017-12-27T10:52:15.025Z,49.73
2017-12-27T10:54:42.690Z,49.29
2017-12-27T10:57:10.369Z,47.59
2017-12-27T10:59:38.034Z,46.61
2017-12-27T11:02:05.635Z,46.10
2017-12-27T11:04:33.308Z,43.18
2017-12-27T11:07:00.910Z,47.92
2017-12-27T11:09:28.570Z,48.39
2017-12-27T11:11:56.166Z,48.41
2017-12-27T11:14:23.770Z,47.55
2017-12-27T11:16:51.403Z,46.01
2017-12-27T11:19:19.008Z,44.75
2017-12-27T11:21:46.727Z,44.27
2017-12-27T11:24:14.327Z,41.80
2017-12-27T11:26:41.919Z,40.04
2017-12-27T11:29:09.535Z,40.19
2017-12-27T11:31:37.139Z,37.96
2017-12-27T11:34:04.783Z,37.27
2017-12-27T11:36:32.374Z,38.48
2017-12-27T11:39:00.035Z,38.29
2017-12-27T11:41:27.703Z,37.70
2017-12-27T11:43:55.302Z,38.87
2017-12-27T11:46:23.031Z,38.29
2017-12-27T11:48:50.698Z,38.28
2017-12-27T11:51:18.297Z,38.78
2017-12-27T11:53:45.973Z,39.34
2017-12-27T11:56:13.630Z,39.56
2017-12-27T11:58:41.284Z,39.98
2017-12-27T12:01:08.911Z,39.60
2017-12-27T12:03:36.510Z,40.31
2017-12-27T12:06:04.191Z,40.31
2017-12-27T12:08:31.798Z,40.36
2017-12-27T12:10:59.544Z,40.86
2017-12-27T12:13:27.140Z,41.31
2017-12-27T12:15:54.807Z,41.07
2017-12-27T12:18:22.475Z,41.34
2017-12-27T12:20:50.135Z,40.63
2017-12-27T12:23:17.799Z,41.17
2017-12-27T12:25:45.406Z,41.13
2017-12-27T12:28:12.999Z,41.25
2017-12-27T12:30:40.615Z,41.67
2017-12-27T12:33:08.218Z,41.09
2017-12-27T12:35:35.932Z,40.67
2017-12-27T12:38:03.533Z,41.08
2017-12-27T12:40:31.205Z,41.01
2017-12-27T12:42:58.885Z,40.63
2017-12-27T12:45:26.489Z,41.04
2017-12-27T12:47:54.216Z,41.30
2017-12-27T12:50:21.829Z,42.24
2017-12-27T12:52:49.430Z,46.34
2017-12-27T12:55:17.067Z,49.92
2017-12-27T12:57:44.675Z,50.71
2017-12-27T13:00:12.338Z,51.62
2017-12-27T13:02:39.937Z,49.83
2017-12-27T13:05:07.598Z,48.37
2017-12-27T13:07:35.211Z,47.92
2017-12-27T13:10:02.870Z,47.33
2017-12-27T13:12:30.678Z,47.76
2017-12-27T13:14:58.347Z,48.70
2017-12-27T13:17:25.943Z,48.51
2017-12-27T13:19:53.667Z,49.61
2017-12-27T13:22:21.333Z,49.79
2017-12-27T13:24:49.051Z,50.79
2017-12-27T13:27:16.812Z,51.77
2017-12-27T13:29:44.528Z,51.63
2017-12-27T13:32:12.140Z,51.40
2017-12-27T13:34:39.756Z,51.73
2017-12-27T13:37:07.421Z,52.80
2017-12-27T13:39:35.027Z,53.45
2017-12-27T13:42:02.627Z,51.24
2017-12-27T13:44:30.302Z,49.90
2017-12-27T13:46:57.901Z,48.33
2017-12-27T13:49:25.643Z,47.14
2017-12-27T13:51:53.253Z,47.39
2017-12-27T13:54:20.862Z,46.97
2017-12-27T13:56:48.489Z,46.70
2017-12-27T13:59:16.103Z,46.78
2017-12-27T14:01:43.827Z,46.98
2017-12-27T14:04:11.426Z,47.04
2017-12-27T14:06:39.035Z,47.34
2017-12-27T14:09:06.715Z,47.12
2017-12-27T14:11:34.330Z,47.70
2017-12-27T14:14:02.003Z,48.19
2017-12-27T14:16:29.618Z,48.40
2017-12-27T14:18:57.237Z,48.31
2017-12-27T14:21:24.866Z,48.92
2017-12-27T14:23:52.512Z,49.23
2017-12-27T14:26:20.239Z,49.82
2017-12-27T14:28:47.843Z,50.01
2017-12-27T14:31:15.539Z,50.63
2017-12-27T14:33:43.174Z,50.50
2017-12-27T14:36:10.849Z,50.37
2017-12-27T14:38:38.610Z,50.72
2017-12-27T14:41:06.231Z,50.37
2017-12-27T14:43:36.771Z,50.42
2017-12-27T14:46:04.505Z,50.38
2017-12-27T14:48:32.187Z,50.53
2017-12-27T14:50:59.948Z,50.65
2017-12-27T14:53:27.572Z,50.78
2017-12-27T14:55:55.224Z,51.04
2017-12-27T14:58:22.883Z,51.20
2017-12-27T15:00:50.502Z,51.76
2017-12-27T15:03:18.178Z,51.96
2017-12-27T15:05:45.780Z,52.32
2017-12-27T15:08:13.391Z,52.46
2017-12-27T15:10:41.032Z,52.90
2017-12-27T15:13:08.699Z,53.29
2017-12-27T15:15:37.280Z,53.68
2017-12-27T15:18:04.888Z,54.17
2017-12-27T15:20:32.513Z,54.61
2017-12-27T15:23:00.122Z,55.10
2017-12-27T15:25:27.731Z,55.60
2017-12-27T15:27:55.386Z,56.13
2017-12-27T15:30:23.071Z,56.41
2017-12-27T15:32:50.762Z,56.84
2017-12-27T15:35:18.374Z,57.19
2017-12-27T15:37:45.981Z,57.59
2017-12-27T15:40:13.634Z,57.92
2017-12-27T15:42:41.235Z,58.30
2017-12-27T15:45:08.934Z,58.79
2017-12-27T15:47:36.610Z,59.12
2017-12-27T15:50:04.227Z,59.41
2017-12-27T15:52:31.929Z,59.59
2017-12-27T15:54:59.594Z,59.95
2017-12-27T15:57:27.200Z,60.37
2017-12-27T15:59:54.950Z,60.87
2017-12-27T16:02:22.658Z,61.08
2017-12-27T16:04:50.385Z,61.12
2017-12-27T16:07:18.063Z,61.42
2017-12-27T16:09:45.674Z,61.74
2017-12-27T16:12:13.286Z,61.67
2017-12-27T16:14:40.959Z,62.07
2017-12-27T16:17:08.676Z,62.46
2017-12-27T16:19:36.339Z,62.92
2017-12-27T16:22:04.007Z,63.00
2017-12-27T16:24:31.691Z,63.55
2017-12-27T16:26:59.303Z,63.51
2017-12-27T16:29:27.031Z,63.26
2017-12-27T16:31:54.696Z,63.37
2017-12-27T16:34:22.448Z,63.08
2017-12-27T16:36:50.175Z,63.16
2017-12-27T16:39:17.837Z,63.37
2017-12-27T16:41:45.540Z,63.63
2017-12-27T16:44:13.140Z,63.72
2017-12-27T16:46:40.756Z,63.44
2017-12-27T16:49:08.354Z,63.66
2017-12-27T16:51:36.067Z,63.35
2017-12-27T16:54:04.854Z,63.65
2017-12-27T16:56:32.454Z,63.50
2017-12-27T16:59:00.119Z,63.60
2017-12-27T17:01:27.725Z,63.83
2017-12-27T17:03:55.336Z,63.93
2017-12-27T17:06:23.045Z,63.83
2017-12-27T17:08:50.641Z,63.57
2017-12-27T17:11:19.239Z,63.79
2017-12-27T17:13:46.846Z,63.87
2017-12-27T17:16:14.512Z,64.11
2017-12-27T17:18:42.227Z,63.94
2017-12-27T17:21:09.841Z,64.03
2017-12-27T17:23:37.525Z,63.68
2017-12-27T17:26:06.113Z,63.87
2017-12-27T17:28:33.725Z,64.03
2017-12-27T17:31:01.378Z,64.39
2017-12-27T17:33:29.042Z,64.21
2017-12-27T17:35:56.655Z,64.60
2017-12-27T17:38:24.279Z,64.89
2017-12-27T17:40:51.958Z,64.62
2017-12-27T17:43:19.617Z,64.75
2017-12-27T17:45:47.233Z,64.82
2017-12-27T17:48:14.830Z,65.55
2017-12-27T17:50:42.506Z,66.59
2017-12-27T17:53:10.190Z,67.07
2017-12-27T17:55:37.849Z,67.75
2017-12-27T17:58:05.467Z,68.38
2017-12-27T18:00:33.138Z,68.98
2017-12-27T18:03:00.754Z,69.59
2017-12-27T18:05:28.360Z,69.59
2017-12-27T18:07:56.098Z,69.44
2017-12-27T18:10:23.722Z,69.85
2017-12-27T18:12:51.351Z,69.60
2017-12-27T18:15:19.054Z,70.10
2017-12-27T18:17:46.719Z,70.39
2017-12-27T18:20:14.453Z,70.74
2017-12-27T18:22:42.122Z,71.28
2017-12-27T18:25:09.721Z,71.79
2017-12-27T18:27:37.325Z,71.88
2017-12-27T18:30:05.051Z,70.14
2017-12-27T18:32:32.789Z,68.33
2017-12-27T18:35:00.459Z,66.75
2017-12-27T18:37:28.074Z,65.78
2017-12-27T18:39:55.746Z,65.50
2017-12-27T18:42:23.348Z,65.35
2017-12-27T18:44:51.074Z,65.19
2017-12-27T18:47:18.773Z,65.27
2017-12-27T18:49:46.439Z,65.09
2017-12-27T18:52:14.191Z,64.96
2017-12-27T18:54:41.924Z,64.78
2017-12-27T18:57:09.698Z,65.09
2017-12-27T18:59:37.373Z,65.07
2017-12-27T19:02:04.987Z,65.01
2017-12-27T19:04:32.675Z,65.02
2017-12-27T19:07:00.305Z,64.82
2017-12-27T19:09:27.982Z,64.98
2017-12-27T19:11:55.621Z,64.91
2017-12-27T19:14:23.222Z,64.96
2017-12-27T19:16:50.843Z,64.85
2017-12-27T19:19:18.454Z,64.82
2017-12-27T19:21:46.126Z,65.17
2017-12-27T19:24:13.735Z,65.10
2017-12-27T19:26:41.407Z,65.04
2017-12-27T19:29:09.032Z,64.70
2017-12-27T19:31:36.698Z,64.57
2017-12-27T19:34:04.422Z,64.27
2017-12-27T19:36:32.080Z,64.29
2017-12-27T19:38:59.675Z,64.35
2017-12-27T19:41:27.363Z,64.58
2017-12-27T19:43:54.991Z,64.86
2017-12-27T19:46:22.658Z,64.80
2017-12-27T19:48:50.271Z,65.02
2017-12-27T19:51:17.880Z,64.93
2017-12-27T19:53:45.502Z,65.04
2017-12-27T19:56:13.181Z,64.96
2017-12-27T19:58:40.891Z,65.22
2017-12-27T20:01:08.503Z,65.26
2017-12-27T20:03:36.109Z,65.48
2017-12-27T20:06:03.731Z,65.71
2017-12-27T20:08:31.339Z,65.34
2017-12-27T20:10:58.998Z,65.53
2017-12-27T20:13:26.600Z,65.45
2017-12-27T20:15:54.260Z,65.79
2017-12-27T20:18:21.931Z,65.64
2017-12-27T20:20:49.595Z,65.61
2017-12-27T20:23:17.328Z,65.23
2017-12-27T20:25:44.989Z,65.07
2017-12-27T20:28:12.595Z,64.92
2017-12-27T20:30:40.288Z,64.51
2017-12-27T20:33:07.896Z,64.59
2017-12-27T20:35:35.550Z,64.57
2017-12-27T20:38:03.153Z,64.53
2017-12-27T20:40:30.820Z,64.63
2017-12-27T20:42:58.519Z,64.80
2017-12-27T20:45:26.219Z,64.99
2017-12-27T20:47:53.886Z,64.97
2017-12-27T20:50:21.543Z,65.00
2017-12-27T20:52:49.207Z,65.19
2017-12-27T20:55:16.826Z,64.93
2017-12-27T20:57:44.425Z,64.90
2017-12-27T21:00:12.078Z,64.33
2017-12-27T21:02:39.738Z,64.84
2017-12-27T21:05:07.346Z,65.33
2017-12-27T21:07:34.965Z,65.84
2017-12-27T21:10:02.562Z,65.55
2017-12-27T21:12:30.287Z,65.33
2017-12-27T21:14:57.894Z,65.40
2017-12-27T21:17:25.500Z,65.52
2017-12-27T21:19:53.112Z,65.20
2017-12-27T21:22:20.716Z,65.37
2017-12-27T21:24:48.377Z,65.26
2017-12-27T21:27:15.986Z,65.45
2017-12-27T21:29:43.642Z,65.64
2017-12-27T21:32:11.254Z,65.93
2017-12-27T21:34:38.874Z,66.16
2017-12-27T21:37:06.542Z,66.44
2017-12-27T21:39:34.152Z,66.44
2017-12-27T21:42:01.770Z,66.20
2017-12-27T21:44:29.381Z,65.65
2017-12-27T21:46:57.035Z,65.47
2017-12-27T21:52:26.347Z,64.92
2017-12-27T21:54:54.018Z,64.90
2017-12-27T21:57:21.666Z,64.51
2017-12-27T21:59:54.938Z,64.47
2017-12-27T22:02:22.608Z,64.71
2017-12-27T22:04:50.258Z,64.26
2017-12-27T22:07:17.947Z,64.06
2017-12-27T22:09:45.614Z,63.50
2017-12-27T22:12:13.217Z,62.92
2017-12-27T22:14:40.882Z,62.84
2017-12-27T22:17:08.539Z,62.94
2017-12-27T22:19:36.142Z,63.11
2017-12-27T22:22:03.802Z,63.09
2017-12-27T22:24:31.401Z,63.33
2017-12-27T22:26:59.003Z,63.63
2017-12-27T22:29:26.714Z,64.22
2017-12-27T22:31:54.313Z,64.35
2017-12-27T22:34:21.915Z,64.49
2017-12-27T22:36:49.578Z,64.23
2017-12-27T22:39:17.194Z,64.19
2017-12-27T22:41:44.860Z,64.34
2017-12-27T22:44:12.526Z,64.55
2017-12-27T22:46:40.126Z,64.48
2017-12-27T22:49:07.728Z,63.89
2017-12-27T22:51:35.389Z,64.04
2017-12-27T22:54:03.048Z,63.87
2017-12-27T22:56:30.761Z,63.77
2017-12-27T22:58:58.425Z,63.46
2017-12-27T23:01:26.078Z,63.26
2017-12-27T23:03:53.670Z,63.52
2017-12-27T23:06:21.339Z,63.82
2017-12-27T23:08:48.986Z,64.11
2017-12-27T23:11:16.591Z,64.61
2017-12-27T23:13:44.246Z,65.16
2017-12-27T23:16:11.899Z,65.47
2017-12-27T23:18:39.490Z,65.61
2017-12-27T23:21:07.135Z,65.93
2017-12-27T23:23:34.739Z,66.14
2017-12-27T23:26:02.348Z,66.63
2017-12-27T23:28:30.005Z,66.93
2017-12-27T23:30:57.664Z,66.96
2017-12-27T23:33:25.253Z,66.90
2017-12-27T23:35:52.907Z,66.78
2017-12-27T23:38:20.506Z,66.54
2017-12-27T23:40:48.154Z,66.49
2017-12-27T23:43:15.846Z,66.44
2017-12-27T23:45:43.490Z,66.56
2017-12-27T23:48:11.090Z,66.77
2017-12-27T23:50:38.799Z,67.00
2017-12-27T23:53:06.462Z,67.15
2017-12-27T23:55:34.063Z,67.53
2017-12-27T23:58:01.774Z,67.90
